Time;durP1;ratioP1;P1;durP2;ratioP2;P2;SDS_P1;SDS_P2;PMS_P1;PMS_P2;Temp;Humidity;BMP_temperature;BMP_pressure;BME280_temperature;BME280_humidity;BME280_pressure;Samples;Min_cycle;Max_cycle;Signal;HPM_P1;HPM_P2
2023/08/30 00:01:43;;;;;;;;;;;;;;;21.44;60.96;100317.19;5027640;28;4140;-64
2023/08/30 00:04:10;;;;;;;;;;;;;;;21.44;61.35;100314.31;5031309;28;4011;-64
2023/08/30 00:06:36;;;;;;;;;;;;;;;21.44;61.31;100308.53;5031160;28;4178;-63
2023/08/30 00:09:03;;;;;;;;;;;;;;;21.45;61.35;100304.28;5027813;28;4167;-63
2023/08/30 00:11:30;;;;;;;;;;;;;;;21.45;61.03;100298.50;5043233;28;3943;-63
2023/08/30 00:14:02;;;;;;;;;;;;;;;21.45;61.23;100302.13;5029158;28;4021;-64
2023/08/30 00:16:28;;;;;;;;;;;;;;;21.42;61.28;100300.59;5023926;28;4258;-63
2023/08/30 00:18:55;;;;;;;;;;;;;;;21.43;61.29;100301.31;5025298;28;4114;-63
2023/08/30 00:21:21;;;;;;;;;;;;;;;21.44;61.16;100305.66;5025202;28;4356;-63
2023/08/30 00:23:47;;;;;;;;;;;;;;;21.43;60.93;100302.06;5025995;28;4247;-63
2023/08/30 00:26:14;;;;;;;;;;;;;;;21.43;60.90;100304.94;5026773;28;4280;-63
2023/08/30 00:28:40;;;;;;;;;;;;;;;21.44;61.29;100305.66;5044932;28;4093;-63
2023/08/30 00:31:07;;;;;;;;;;;;;;;21.43;60.90;100304.19;5023848;28;4322;-63
2023/08/30 00:33:33;;;;;;;;;;;;;;;21.43;60.98;100304.94;5027686;28;4017;-63
2023/08/30 00:36:00;;;;;;;;;;;;;;;21.43;61.17;100304.19;5042685;28;4266;-63
2023/08/30 00:38:27;;;;;;;;;;;;;;;21.43;60.98;100307.09;5041249;28;4173;-63
2023/08/30 00:40:53;;;;;;;;;;;;;;;21.42;60.90;100308.50;5039538;28;3948;-64
2023/08/30 00:43:20;;;;;;;;;;;;;;;21.43;61.06;100309.97;5025287;28;4331;-63
2023/08/30 00:45:46;;;;;;;;;;;;;;;21.42;61.03;100311.38;5030877;28;4183;-63
2023/08/30 00:48:13;;;;;;;;;;;;;;;21.41;60.92;100313.50;5026932;28;4120;-63
2023/08/30 00:50:39;;;;;;;;;;;;;;;21.40;61.07;100312.03;5044404;28;4222;-63
2023/08/30 00:53:06;;;;;;;;;;;;;;;21.42;60.96;100311.38;5026320;28;4112;-62
2023/08/30 00:55:33;;;;;;;;;;;;;;;21.42;60.98;100311.38;5040477;28;4295;-62
2023/08/30 00:58:00;;;;;;;;;;;;;;;21.42;60.98;100303.47;5023937;28;4100;-62
2023/08/30 01:00:27;;;;;;;;;;;;;;;21.42;60.89;100302.75;5023465;28;6688;-62
2023/08/30 01:02:54;;;;;;;;;;;;;;;21.43;61.16;100315.72;5025680;28;3913;-62
2023/08/30 01:05:21;;;;;;;;;;;;;;;21.42;60.82;100317.16;5027271;28;3978;-62
2023/08/30 01:07:48;;;;;;;;;;;;;;;21.41;60.92;100316.38;5027762;28;4247;-62
2023/08/30 01:10:14;;;;;;;;;;;;;;;21.41;61.07;100312.78;5025164;28;4065;-62
2023/08/30 01:12:52;;;;;;;;;;;;;;;21.40;60.86;100311.28;5026126;28;4167;-62
2023/08/30 01:15:19;;;;;;;;;;;;;;;21.40;61.17;100317.03;5026295;28;4187;-62
2023/08/30 01:17:46;;;;;;;;;;;;;;;21.39;60.93;100310.53;5026274;28;3932;-62
2023/08/30 01:20:14;;;;;;;;;;;;;;;21.39;61.20;100304.03;5024187;28;4131;-62
2023/08/30 01:22:59;;;;;;;;;;;;;;;21.41;61.24;100309.88;5040553;28;4106;-62
2023/08/30 01:25:45;;;;;;;;;;;;;;;21.41;60.89;100315.66;5024412;28;4159;-62
2023/08/30 01:28:11;;;;;;;;;;;;;;;21.41;61.17;100313.50;5019809;28;4161;-62
2023/08/30 01:30:39;;;;;;;;;;;;;;;21.41;60.86;100316.38;5019468;28;4137;-66
2023/08/30 01:33:05;;;;;;;;;;;;;;;21.40;61.14;100320.69;5027505;28;4166;-67
2023/08/30 01:35:32;;;;;;;;;;;;;;;21.40;60.99;100322.81;5027626;28;4170;-68
2023/08/30 01:37:59;;;;;;;;;;;;;;;21.39;61.07;100316.28;5024656;28;4071;-68
2023/08/30 01:40:26;;;;;;;;;;;;;;;21.40;61.15;100334.31;5040722;28;5695;-67
2023/08/30 01:42:53;;;;;;;;;;;;;;;21.39;61.04;100332.84;5038229;28;4650;-68
2023/08/30 01:45:19;;;;;;;;;;;;;;;21.37;61.24;100345.00;5026492;28;4173;-67
2023/08/30 01:47:46;;;;;;;;;;;;;;;21.38;60.96;100340.00;5024968;28;4098;-68
2023/08/30 01:50:12;;;;;;;;;;;;;;;21.38;61.10;100342.88;5020099;28;4151;-69
2023/08/30 01:52:39;;;;;;;;;;;;;;;21.38;61.06;100342.88;5021863;28;4229;-68
2023/08/30 01:55:05;;;;;;;;;;;;;;;21.38;60.81;100337.13;5025470;28;4175;-68
2023/08/30 01:57:32;;;;;;;;;;;;;;;21.38;60.70;100331.38;5022378;28;4121;-67
2023/08/30 01:59:59;;;;;;;;;;;;;;;21.38;61.04;100337.13;5004921;28;4044;-68
2023/08/30 02:02:28;;;;;;;;;;;;;;;21.39;61.00;100335.72;5042058;28;4178;-68
2023/08/30 02:04:54;;;;;;;;;;;;;;;21.38;61.05;100325.63;5026535;28;4120;-68
2023/08/30 02:07:23;;;;;;;;;;;;;;;21.36;61.11;100329.16;5026624;28;4182;-69
2023/08/30 02:10:11;;;;;;;;;;;;;;;21.36;61.05;100329.16;5020418;28;4100;-68
2023/08/30 02:12:47;;;;;;;;;;;;;;;21.37;61.01;100324.13;5025186;28;4139;-68
2023/08/30 02:15:13;;;;;;;;;;;;;;;21.37;60.85;100329.88;5023840;28;4105;-68
2023/08/30 02:17:40;;;;;;;;;;;;;;;21.36;60.90;100323.38;5026011;28;4073;-68
2023/08/30 02:20:07;;;;;;;;;;;;;;;21.37;61.03;100329.88;5022774;28;4108;-68
2023/08/30 02:22:33;;;;;;;;;;;;;;;21.37;60.79;100319.09;5032683;28;4190;-68
2023/08/30 02:25:04;;;;;;;;;;;;;;;21.37;61.12;100312.59;5027220;28;4168;-68
2023/08/30 02:27:31;;;;;;;;;;;;;;;21.36;60.87;100306.13;5029272;28;4030;-68
2023/08/30 02:29:57;;;;;;;;;;;;;;;21.36;60.98;100311.88;5033473;28;4045;-68
2023/08/30 02:32:24;;;;;;;;;;;;;;;21.37;61.06;100315.47;5030408;28;4151;-68
2023/08/30 02:34:50;;;;;;;;;;;;;;;21.36;61.01;100323.38;5029687;28;4144;-68
2023/08/30 02:37:19;;;;;;;;;;;;;;;21.36;60.89;100323.38;5030886;28;4051;-68
2023/08/30 02:39:46;;;;;;;;;;;;;;;21.36;60.96;100316.91;5025995;28;4182;-69
2023/08/30 02:42:12;;;;;;;;;;;;;;;21.36;60.82;100319.78;5028773;28;4314;-68
2023/08/30 02:44:39;;;;;;;;;;;;;;;21.37;61.02;100309.72;5027393;28;4221;-69
2023/08/30 02:47:07;;;;;;;;;;;;;;;21.37;60.84;100301.09;5028077;28;4261;-68
2023/08/30 02:49:33;;;;;;;;;;;;;;;21.34;61.08;100298.13;5028162;28;4195;-68
2023/08/30 02:52:00;;;;;;;;;;;;;;;21.34;60.88;100297.41;5034515;28;4090;-68
2023/08/30 02:54:26;;;;;;;;;;;;;;;21.34;60.68;100289.50;5027755;28;4187;-68
2023/08/30 02:56:53;;;;;;;;;;;;;;;21.34;61.06;100286.63;5031849;28;4155;-68
2023/08/30 02:59:19;;;;;;;;;;;;;;;21.34;61.07;100286.63;5027803;28;4129;-68
2023/08/30 03:01:46;;;;;;;;;;;;;;;21.33;61.16;100290.91;5028724;28;4236;-68
2023/08/30 03:04:14;;;;;;;;;;;;;;;21.33;60.69;100285.16;5044954;28;4453;-68
2023/08/30 03:06:41;;;;;;;;;;;;;;;21.34;61.01;100280.84;5045359;28;4103;-69
2023/08/30 03:09:07;;;;;;;;;;;;;;;21.33;61.15;100288.03;5027283;28;4142;-68
2023/08/30 03:11:35;;;;;;;;;;;;;;;21.36;61.12;100285.22;5028859;28;4151;-68
2023/08/30 03:14:02;;;;;;;;;;;;;;;21.33;61.15;100279.41;5026360;28;4577;-69
2023/08/30 03:16:29;;;;;;;;;;;;;;;21.33;60.97;100290.19;5029960;28;4176;-68
2023/08/30 03:18:55;;;;;;;;;;;;;;;21.33;61.14;100285.16;5043002;28;4062;-69
2023/08/30 03:21:22;;;;;;;;;;;;;;;21.33;60.81;100288.03;5022870;28;4097;-68
2023/08/30 03:23:48;;;;;;;;;;;;;;;21.33;61.02;100290.91;5026267;28;4070;-69
2023/08/30 03:26:15;;;;;;;;;;;;;;;21.31;60.85;100282.19;5023947;28;4099;-68
2023/08/30 03:28:42;;;;;;;;;;;;;;;21.33;61.15;100290.91;5029238;28;4094;-69
2023/08/30 03:31:11;;;;;;;;;;;;;;;21.32;61.00;100289.41;5026938;28;4115;-68
2023/08/30 03:33:41;;;;;;;;;;;;;;;21.32;60.87;100283.66;5043533;28;4135;-68
2023/08/30 03:36:11;;;;;;;;;;;;;;;21.33;60.79;100290.19;5025664;28;4056;-68
2023/08/30 03:38:37;;;;;;;;;;;;;;;21.32;61.03;100283.66;5029933;28;4200;-68
2023/08/30 03:41:04;;;;;;;;;;;;;;;21.32;60.88;100289.41;5042012;28;4145;-68
2023/08/30 03:43:31;;;;;;;;;;;;;;;21.32;61.12;100283.66;5045472;28;4179;-68
2023/08/30 03:45:58;;;;;;;;;;;;;;;21.31;60.83;100287.97;5044825;28;4084;-69
2023/08/30 03:48:24;;;;;;;;;;;;;;;21.31;61.19;100287.97;5027329;28;4451;-68
2023/08/30 03:50:51;;;;;;;;;;;;;;;21.30;60.90;100280.75;5022612;28;4177;-68
2023/08/30 03:53:17;;;;;;;;;;;;;;;21.30;61.20;100285.75;5026477;28;4225;-68
2023/08/30 03:55:43;;;;;;;;;;;;;;;21.31;60.87;100287.97;5043592;28;4135;-68
2023/08/30 03:58:10;;;;;;;;;;;;;;;21.30;61.12;100289.38;5023328;28;4195;-68
2023/08/30 04:00:37;;;;;;;;;;;;;;;21.31;61.09;100278.59;5026207;28;4214;-68
2023/08/30 04:03:08;;;;;;;;;;;;;;;21.30;61.09;100279.97;5023081;28;4099;-67
2023/08/30 04:05:35;;;;;;;;;;;;;;;21.28;60.96;100266.28;5032242;28;5107;-68
2023/08/30 04:08:02;;;;;;;;;;;;;;;21.29;60.76;100273.50;5025048;28;4296;-67
2023/08/30 04:10:28;;;;;;;;;;;;;;;21.29;60.97;100285.00;5027976;28;4216;-68
2023/08/30 04:12:55;;;;;;;;;;;;;;;21.29;60.70;100285.00;5025727;28;4174;-68
2023/08/30 04:15:21;;;;;;;;;;;;;;;21.28;60.77;100277.78;5026952;28;4075;-68
2023/08/30 04:17:47;;;;;;;;;;;;;;;21.29;60.73;100275.63;5026639;28;4109;-67
2023/08/30 04:20:14;;;;;;;;;;;;;;;21.29;60.86;100284.28;5027989;28;4025;-68
2023/08/30 04:22:40;;;;;;;;;;;;;;;21.29;60.79;100279.25;5028143;28;4158;-68
2023/08/30 04:25:09;;;;;;;;;;;;;;;21.29;60.99;100287.88;5043394;28;4002;-67
2023/08/30 04:27:35;;;;;;;;;;;;;;;21.28;60.77;100283.56;5044990;28;4265;-67
2023/08/30 04:30:02;;;;;;;;;;;;;;;21.29;61.09;100290.78;5027105;28;4157;-67
2023/08/30 04:32:28;;;;;;;;;;;;;;;21.29;60.83;100296.53;5027018;28;4096;-69
2023/08/30 04:34:55;;;;;;;;;;;;;;;21.28;60.94;100300.81;5024200;28;4054;-67
2023/08/30 04:37:21;;;;;;;;;;;;;;;21.13;60.92;100295.97;5019515;28;4064;-67
2023/08/30 04:39:48;;;;;;;;;;;;;;;20.67;61.48;100299.44;5040030;28;4113;-67
2023/08/30 04:42:15;;;;;;;;;;;;;;;20.43;62.05;100299.25;5021641;28;4157;-69
2023/08/30 04:44:42;;;;;;;;;;;;;;;20.49;61.55;100296.59;5029527;28;4271;-69
2023/08/30 04:47:08;;;;;;;;;;;;;;;20.68;61.26;100303.03;5041836;28;4052;-69
2023/08/30 04:49:36;;;;;;;;;;;;;;;20.91;60.86;100308.22;5024923;28;4315;-70
2023/08/30 04:52:03;;;;;;;;;;;;;;;21.03;60.71;100307.88;5023582;28;4181;-69
2023/08/30 04:54:30;;;;;;;;;;;;;;;21.09;60.61;100310.97;5039896;28;4099;-69
2023/08/30 04:56:56;;;;;;;;;;;;;;;21.13;60.49;100308.22;5043670;28;4258;-70
2023/08/30 04:59:24;;;;;;;;;;;;;;;21.15;60.44;100315.47;5040475;28;4184;-70
2023/08/30 05:01:51;;;;;;;;;;;;;;;21.16;60.52;100306.16;5042953;28;4199;-69
2023/08/30 05:04:19;;;;;;;;;;;;;;;21.16;60.53;100309.03;5026071;28;4249;-69
2023/08/30 05:06:45;;;;;;;;;;;;;;;21.17;60.36;100316.28;5027944;28;4210;-69
2023/08/30 05:09:12;;;;;;;;;;;;;;;21.18;60.61;100314.13;5045221;28;4023;-70
2023/08/30 05:11:38;;;;;;;;;;;;;;;21.18;60.66;100326.38;5025152;28;4005;-70
2023/08/30 05:14:05;;;;;;;;;;;;;;;21.17;60.66;100324.91;5045579;28;4201;-69
2023/08/30 05:16:31;;;;;;;;;;;;;;;21.18;60.47;100320.63;5027022;28;4024;-69
2023/08/30 05:19:00;;;;;;;;;;;;;;;21.18;60.60;100314.13;5023355;28;4106;-69
2023/08/30 05:21:26;;;;;;;;;;;;;;;21.19;60.90;100321.34;5044408;28;4257;-70
2023/08/30 05:23:53;;;;;;;;;;;;;;;21.18;60.77;100320.63;5038933;28;4154;-69
2023/08/30 05:26:19;;;;;;;;;;;;;;;21.18;60.57;100329.25;5024127;28;3964;-69
2023/08/30 05:28:46;;;;;;;;;;;;;;;21.18;60.98;100320.63;5023304;28;4100;-70
2023/08/30 05:31:12;;;;;;;;;;;;;;;21.18;60.63;100326.38;5040198;28;4188;-70
2023/08/30 05:33:57;;;;;;;;;;;;;;;21.19;60.72;100322.13;5026018;28;4270;-69
2023/08/30 05:36:43;;;;;;;;;;;;;;;21.19;60.78;100315.59;5029980;28;4119;-69
2023/08/30 05:39:34;;;;;;;;;;;;;;;21.19;60.96;100322.13;5045457;28;4105;-69
2023/08/30 05:42:00;;;;;;;;;;;;;;;21.19;61.12;100319.22;5027086;28;4006;-70
2023/08/30 05:44:26;;;;;;;;;;;;;;;21.19;60.88;100313.47;5027373;28;4157;-68
2023/08/30 05:46:53;;;;;;;;;;;;;;;21.19;60.96;100316.34;5039826;28;4100;-69
2023/08/30 05:49:19;;;;;;;;;;;;;;;21.19;60.82;100310.59;5041872;28;4259;-70
2023/08/30 05:51:47;;;;;;;;;;;;;;;21.20;60.97;100314.19;5030295;28;3898;-70
2023/08/30 05:54:14;;;;;;;;;;;;;;;21.19;60.75;100310.59;5024663;28;4414;-70
2023/08/30 05:56:41;;;;;;;;;;;;;;;21.20;61.07;100311.31;5029673;28;4139;-70
2023/08/30 05:59:08;;;;;;;;;;;;;;;21.20;60.94;100306.31;5025944;28;4021;-70
2023/08/30 06:01:35;;;;;;;;;;;;;;;21.20;61.05;100317.81;5030790;28;4020;-70
2023/08/30 06:04:01;;;;;;;;;;;;;;;21.19;60.99;100310.59;5030339;28;4824;-69
2023/08/30 06:06:28;;;;;;;;;;;;;;;21.19;60.88;100307.72;5029757;28;4058;-70
2023/08/30 06:08:54;;;;;;;;;;;;;;;21.20;60.90;100306.31;5032814;28;4212;-70
2023/08/30 06:11:21;;;;;;;;;;;;;;;21.19;61.26;100307.72;5029646;28;4107;-69
2023/08/30 06:13:47;;;;;;;;;;;;;;;21.20;61.05;100306.31;5029005;28;4144;-70
2023/08/30 06:16:13;;;;;;;;;;;;;;;21.21;61.03;100296.28;5029240;28;4142;-70
2023/08/30 06:18:41;;;;;;;;;;;;;;;21.21;60.92;100296.28;5028804;28;4122;-70
2023/08/30 06:21:07;;;;;;;;;;;;;;;21.20;60.95;100294.78;5030155;28;4051;-69
2023/08/30 06:23:34;;;;;;;;;;;;;;;21.21;61.26;100289.75;5031255;28;4220;-70
2023/08/30 06:26:02;;;;;;;;;;;;;;;21.20;60.99;100296.94;5030542;28;4130;-70
2023/08/30 06:28:29;;;;;;;;;;;;;;;21.20;61.24;100294.78;5030648;28;4190;-70
2023/08/30 06:30:57;;;;;;;;;;;;;;;21.21;61.30;100292.63;5028895;28;4067;-69
2023/08/30 06:33:24;;;;;;;;;;;;;;;21.22;60.96;100297.00;5028036;28;3978;-70
2023/08/30 06:35:51;;;;;;;;;;;;;;;21.22;61.26;100291.25;5045995;28;4041;-69
2023/08/30 06:38:17;;;;;;;;;;;;;;;21.21;61.00;100290.50;5031457;28;5409;-69
2023/08/30 06:40:44;;;;;;;;;;;;;;;21.20;61.05;100283.25;5031181;28;4125;-70
2023/08/30 06:43:11;;;;;;;;;;;;;;;21.21;61.21;100273.25;5033221;28;4090;-70
2023/08/30 06:45:38;;;;;;;;;;;;;;;21.21;61.22;100284.00;5030705;28;4138;-70
2023/08/30 06:48:05;;;;;;;;;;;;;;;21.22;61.05;100285.47;5032433;28;4113;-69
2023/08/30 06:50:33;;;;;;;;;;;;;;;21.21;61.11;100287.63;5029393;28;4082;-70
2023/08/30 06:52:59;;;;;;;;;;;;;;;21.21;61.22;100284.75;5031668;28;4008;-70
2023/08/30 06:55:25;;;;;;;;;;;;;;;21.22;61.26;100286.22;5029678;28;4860;-70
2023/08/30 06:57:52;;;;;;;;;;;;;;;21.20;61.24;100277.50;5031244;28;4092;-70
2023/08/30 07:00:18;;;;;;;;;;;;;;;21.21;60.90;100284.75;5036245;28;4040;-71
2023/08/30 07:02:45;;;;;;;;;;;;;;;21.20;61.27;100283.25;5030867;28;4011;-70
2023/08/30 07:05:12;;;;;;;;;;;;;;;21.20;61.17;100277.50;5026821;28;3966;-70
2023/08/30 07:07:39;;;;;;;;;;;;;;;21.22;61.29;100273.97;5029518;28;4010;-70
2023/08/30 07:10:05;;;;;;;;;;;;;;;21.20;61.18;100283.25;5030540;28;4505;-70
2023/08/30 07:12:31;;;;;;;;;;;;;;;21.22;61.37;100282.59;5032454;28;4152;-69
2023/08/30 07:14:58;;;;;;;;;;;;;;;21.21;61.45;100284.00;5031609;28;4147;-70
2023/08/30 07:17:25;;;;;;;;;;;;;;;21.21;61.43;100284.75;5043624;28;4215;-70
2023/08/30 07:19:56;;;;;;;;;;;;;;;21.21;61.44;100284.75;5030888;28;4046;-70
2023/08/30 07:22:23;;;;;;;;;;;;;;;21.21;61.49;100286.88;5031683;28;4499;-70
2023/08/30 07:24:49;;;;;;;;;;;;;;;21.22;61.35;100279.72;5034685;28;4163;-70
2023/08/30 07:27:15;;;;;;;;;;;;;;;21.26;61.89;100279.88;5028205;28;4297;-70
2023/08/30 07:29:43;;;;;;;;;;;;;;;21.26;61.63;100274.84;5029329;28;4533;-70
2023/08/30 07:32:10;;;;;;;;;;;;;;;21.27;61.96;100275.56;5030007;28;4196;-71
2023/08/30 07:34:36;;;;;;;;;;;;;;;21.28;61.77;100272.03;5032752;28;3964;-65
2023/08/30 07:37:02;;;;;;;;;;;;;;;21.28;61.82;100266.28;5026061;28;4082;-75
2023/08/30 07:39:29;;;;;;;;;;;;;;;21.29;61.74;100279.25;5030086;28;4245;-70
2023/08/30 07:41:55;;;;;;;;;;;;;;;21.27;61.59;100276.31;5029960;28;4130;-71
2023/08/30 07:44:21;;;;;;;;;;;;;;;21.26;61.54;100277.00;5031466;28;4114;-71
2023/08/30 07:46:48;;;;;;;;;;;;;;;21.26;61.75;100280.59;5026865;28;3960;-71
2023/08/30 07:49:15;;;;;;;;;;;;;;;21.25;61.76;100279.09;5029562;28;4081;-71
2023/08/30 07:51:41;;;;;;;;;;;;;;;21.25;61.63;100279.09;5029955;28;3900;-70
2023/08/30 07:54:09;;;;;;;;;;;;;;;21.25;61.71;100290.63;5034707;28;4210;-71
2023/08/30 07:56:35;;;;;;;;;;;;;;;21.25;61.84;100284.88;5030383;28;3934;-70
2023/08/30 07:59:01;;;;;;;;;;;;;;;21.26;61.75;100295.00;5030051;28;4040;-70
2023/08/30 08:01:29;;;;;;;;;;;;;;;21.26;61.64;100285.63;5031791;28;4031;-71
2023/08/30 08:03:55;;;;;;;;;;;;;;;21.26;61.69;100283.47;5034413;28;4193;-70
2023/08/30 08:06:33;;;;;;;;;;;;;;;21.25;61.66;100279.09;5026411;28;4046;-71
2023/08/30 08:09:00;;;;;;;;;;;;;;;21.26;61.62;100280.59;5033663;28;4178;-71
2023/08/30 08:11:26;;;;;;;;;;;;;;;21.27;61.55;100281.31;5029342;28;3909;-70
2023/08/30 08:13:53;;;;;;;;;;;;;;;21.26;61.67;100280.59;5029662;28;4202;-71
2023/08/30 08:16:20;;;;;;;;;;;;;;;21.27;61.65;100287.81;5031687;28;4142;-71
2023/08/30 08:18:47;;;;;;;;;;;;;;;21.26;61.40;100286.34;5027671;28;4142;-71
2023/08/30 08:21:14;;;;;;;;;;;;;;;21.27;61.36;100287.81;5032328;28;6367;-71
2023/08/30 08:23:40;;;;;;;;;;;;;;;21.27;61.59;100290.69;5033194;28;3906;-71
2023/08/30 08:26:08;;;;;;;;;;;;;;;21.27;61.59;100296.47;5031008;28;4103;-70
2023/08/30 08:28:34;;;;;;;;;;;;;;;21.23;61.40;100295.59;5026080;28;3989;-70
2023/08/30 08:31:01;;;;;;;;;;;;;;;21.15;62.19;100293.19;5027748;28;4075;-66
2023/08/30 08:33:27;;;;;;;;;;;;;;;20.95;63.62;100286.72;5043448;28;4469;-68
2023/08/30 08:35:54;;;;;;;;;;;;;;;20.95;63.72;100286.72;5028969;28;4427;-70
2023/08/30 08:38:20;;;;;;;;;;;;;;;21.08;63.31;100285.75;5025397;28;4385;-69
2023/08/30 08:40:47;;;;;;;;;;;;;;;21.16;62.97;100288.88;5032055;28;4300;-68
2023/08/30 08:43:13;;;;;;;;;;;;;;;21.15;63.00;100280.94;5025865;28;4024;-69
2023/08/30 08:45:39;;;;;;;;;;;;;;;21.21;62.47;100284.75;5047258;28;4112;-68
2023/08/30 08:48:06;;;;;;;;;;;;;;;21.21;62.36;100279.00;5029431;28;4149;-68
2023/08/30 08:50:33;;;;;;;;;;;;;;;21.24;62.28;100286.28;5033306;28;4122;-68
2023/08/30 08:53:01;;;;;;;;;;;;;;;21.26;62.18;100283.47;5029444;28;5511;-68
2023/08/30 08:55:29;;;;;;;;;;;;;;;21.28;62.20;100280.66;5028731;28;4147;-68
2023/08/30 08:57:56;;;;;;;;;;;;;;;21.28;62.05;100286.44;5028445;28;4147;-69
2023/08/30 09:00:23;;;;;;;;;;;;;;;21.29;62.03;100281.41;5028519;28;4023;-69
2023/08/30 09:02:51;;;;;;;;;;;;;;;21.25;61.74;100279.09;5029357;28;4121;-67
2023/08/30 09:05:18;;;;;;;;;;;;;;;21.34;61.81;100277.97;5030926;28;4095;-67
2023/08/30 09:07:45;;;;;;;;;;;;;;;21.37;62.36;100278.03;5030163;28;4010;-66
2023/08/30 09:10:11;;;;;;;;;;;;;;;21.37;62.15;100278.03;5044945;28;4060;-67
2023/08/30 09:12:37;;;;;;;;;;;;;;;21.37;62.01;100278.03;5029536;28;4203;-67
2023/08/30 09:15:04;;;;;;;;;;;;;;;21.36;62.04;100282.34;5026394;28;4132;-67
2023/08/30 09:17:36;;;;;;;;;;;;;;;21.36;62.15;100282.34;5027891;28;3990;-67
2023/08/30 09:20:07;;;;;;;;;;;;;;;21.33;62.26;100276.50;5027077;28;4146;-71
2023/08/30 09:22:37;;;;;;;;;;;;;;;21.38;62.47;100279.53;5033348;28;4017;-65
2023/08/30 09:25:03;;;;;;;;;;;;;;;21.37;62.18;100280.94;5031706;28;4375;-65
2023/08/30 09:27:33;;;;;;;;;;;;;;;21.33;62.22;100278.66;5029116;28;3998;-66
2023/08/30 09:30:00;;;;;;;;;;;;;;;21.32;62.76;100277.16;5027360;28;4199;-66
2023/08/30 09:32:26;;;;;;;;;;;;;;;21.32;62.87;100275.03;5032615;28;4104;-69
2023/08/30 09:34:53;;;;;;;;;;;;;;;21.34;63.20;100277.25;5027658;28;4161;-68
2023/08/30 09:37:22;;;;;;;;;;;;;;;21.39;63.41;100275.22;5031266;28;3999;-67
2023/08/30 09:39:51;;;;;;;;;;;;;;;21.38;63.01;100276.66;5030345;28;5379;-67
2023/08/30 09:42:18;;;;;;;;;;;;;;;21.39;63.02;100281.72;5027475;28;3974;-68
2023/08/30 09:44:44;;;;;;;;;;;;;;;21.28;63.08;100282.78;5030993;28;4145;-67
2023/08/30 09:47:12;;;;;;;;;;;;;;;21.21;63.56;100284.75;5026390;28;4339;-65
2023/08/30 09:49:43;;;;;;;;;;;;;;;21.23;63.49;100279.03;5030842;28;4342;-66
2023/08/30 09:52:09;;;;;;;;;;;;;;;21.19;63.26;100284.69;5029474;28;4150;-66
2023/08/30 09:54:38;;;;;;;;;;;;;;;21.18;63.13;100273.81;5031122;28;6084;-66
2023/08/30 09:57:06;;;;;;;;;;;;;;;21.13;63.17;100272.94;5025113;28;4104;-67
2023/08/30 09:59:32;;;;;;;;;;;;;;;21.07;63.01;100269.84;5030196;28;4068;-66
2023/08/30 10:02:00;;;;;;;;;;;;;;;21.06;63.01;100268.41;5029891;28;4091;-66
2023/08/30 10:04:27;;;;;;;;;;;;;;;21.06;62.73;100262.63;5027763;28;4121;-66
2023/08/30 10:06:53;;;;;;;;;;;;;;;21.08;62.56;100259.84;5025754;28;4437;-66
2023/08/30 10:09:19;;;;;;;;;;;;;;;21.07;62.68;100258.34;5030916;28;4064;-66
2023/08/30 10:11:46;;;;;;;;;;;;;;;21.08;62.47;100254.81;5044084;28;4082;-67
2023/08/30 10:14:13;;;;;;;;;;;;;;;21.15;61.92;100252.13;5029755;28;4032;-67
2023/08/30 10:16:46;;;;;;;;;;;;;;;21.20;61.92;100240.06;5028489;28;4335;-67
2023/08/30 10:19:16;;;;;;;;;;;;;;;21.16;61.97;100237.06;5029696;28;4298;-69
2023/08/30 10:21:47;;;;;;;;;;;;;;;21.16;62.57;100236.31;5025571;28;4583;-68
2023/08/30 10:24:17;;;;;;;;;;;;;;;21.02;62.01;100234.44;5022887;28;4243;-69
2023/08/30 10:27:00;;;;;;;;;;;;;;;21.07;62.01;100229.56;5029484;28;3997;-69
2023/08/30 10:29:26;;;;;;;;;;;;;;;21.18;62.13;100234.25;5029878;28;4144;-70
2023/08/30 10:31:52;;;;;;;;;;;;;;;21.15;61.44;100241.34;5027149;28;4066;-71
2023/08/30 10:34:20;;;;;;;;;;;;;;;21.32;61.50;100240.47;5024370;28;4152;-68
2023/08/30 10:36:56;;;;;;;;;;;;;;;21.32;60.88;100243.34;5026122;28;4146;-68
2023/08/30 10:39:26;;;;;;;;;;;;;;;21.33;60.79;100246.97;5027174;28;4158;-68
2023/08/30 10:41:56;;;;;;;;;;;;;;;21.32;60.28;100246.22;5030110;28;3957;-68
2023/08/30 10:44:23;;;;;;;;;;;;;;;21.25;61.01;100250.31;5028842;28;4289;-68
2023/08/30 10:46:53;;;;;;;;;;;;;;;21.26;60.66;100243.16;5030196;28;3929;-68
2023/08/30 10:49:20;;;;;;;;;;;;;;;20.95;60.71;100252.91;5031193;28;4164;-67
2023/08/30 10:51:54;;;;;;;;;;;;;;;21.44;60.30;100242.28;5028859;28;4152;-69
2023/08/30 10:54:21;;;;;;;;;;;;;;;21.49;60.45;100244.66;5028117;28;4233;-68
2023/08/30 10:56:59;;;;;;;;;;;;;;;21.40;60.66;100245.03;5031449;28;4213;-67
2023/08/30 10:59:25;;;;;;;;;;;;;;;21.40;60.74;100250.81;5030430;28;4123;-68
2023/08/30 11:01:52;;;;;;;;;;;;;;;21.29;59.88;100252.59;5024837;28;4316;-67
2023/08/30 11:04:18;;;;;;;;;;;;;;;21.29;60.15;100261.97;5030420;28;4035;-67
2023/08/30 11:06:45;;;;;;;;;;;;;;;21.33;60.43;100241.94;5034077;28;4066;-67
2023/08/30 11:09:17;;;;;;;;;;;;;;;21.34;60.24;100251.31;5030521;28;4179;-67
2023/08/30 11:11:45;;;;;;;;;;;;;;;21.36;59.92;100253.53;5029049;28;4397;-67
2023/08/30 11:14:11;;;;;;;;;;;;;;;21.23;59.55;100253.13;5030526;28;4138;-67
2023/08/30 11:16:38;;;;;;;;;;;;;;;21.24;59.71;100260.38;5029510;28;4033;-67
2023/08/30 11:19:04;;;;;;;;;;;;;;;21.31;59.52;100239.00;5029449;28;4117;-67
2023/08/30 11:21:31;;;;;;;;;;;;;;;21.30;59.43;100245.44;5026061;28;4114;-67
2023/08/30 11:23:57;;;;;;;;;;;;;;;21.27;59.88;100246.78;5036649;28;4030;-67
2023/08/30 11:26:24;;;;;;;;;;;;;;;21.25;59.94;100247.44;5036732;28;4135;-67
2023/08/30 11:28:52;;;;;;;;;;;;;;;21.16;59.81;100245.69;5027944;28;4031;-68
2023/08/30 11:31:22;;;;;;;;;;;;;;;21.18;60.16;100251.53;5032617;28;4171;-67
2023/08/30 11:33:52;;;;;;;;;;;;;;;21.01;60.35;100243.75;5044712;28;4175;-67
2023/08/30 11:36:21;;;;;;;;;;;;;;;21.00;60.17;100248.03;5030098;28;4131;-67
2023/08/30 11:38:48;;;;;;;;;;;;;;;21.06;60.70;100246.09;5030660;28;4151;-67
2023/08/30 11:41:14;;;;;;;;;;;;;;;21.19;60.56;100241.50;5028509;28;4012;-67
2023/08/30 11:43:41;;;;;;;;;;;;;;;21.22;60.00;100245.19;5031412;28;4018;-67
2023/08/30 11:46:12;;;;;;;;;;;;;;;21.39;59.70;100237.78;5029290;28;4034;-65
2023/08/30 11:48:39;;;;;;;;;;;;;;;21.43;59.80;100235.06;5030154;28;4257;-65
2023/08/30 11:51:05;;;;;;;;;;;;;;;21.45;59.55;100240.91;5027307;28;4194;-65
2023/08/30 11:53:32;;;;;;;;;;;;;;;21.44;59.93;100242.28;5026984;28;5178;-66
2023/08/30 11:55:58;;;;;;;;;;;;;;;21.43;59.97;100240.84;5029201;28;3991;-65
2023/08/30 11:58:25;;;;;;;;;;;;;;;21.44;59.77;100243.06;5028132;28;4254;-66
2023/08/30 12:00:53;;;;;;;;;;;;;;;21.44;59.76;100237.28;5028860;28;4051;-66
2023/08/30 12:03:20;;;;;;;;;;;;;;;21.46;60.15;100239.47;5029595;28;4312;-66
2023/08/30 12:05:46;;;;;;;;;;;;;;;21.44;60.05;100236.53;5036556;28;4124;-66
2023/08/30 12:08:26;;;;;;;;;;;;;;;21.44;60.12;100242.28;5027984;28;4308;-66
2023/08/30 12:10:52;;;;;;;;;;;;;;;21.44;60.17;100237.28;5029615;28;4041;-65
2023/08/30 12:13:22;;;;;;;;;;;;;;;21.47;59.98;100246.72;5031618;28;4123;-66
2023/08/30 12:15:49;;;;;;;;;;;;;;;21.45;60.12;100238.75;5031737;28;4048;-66
2023/08/30 12:18:15;;;;;;;;;;;;;;;21.47;59.90;100232.34;5024900;28;4082;-65
2023/08/30 12:20:54;;;;;;;;;;;;;;;21.48;60.26;100242.44;5029743;28;4075;-66
2023/08/30 12:23:21;;;;;;;;;;;;;;;21.48;60.11;100236.66;5028456;28;4668;-65
2023/08/30 12:26:17;;;;;;;;;;;;;;;21.48;60.35;100236.66;5029322;28;4139;-66
2023/08/30 12:28:44;;;;;;;;;;;;;;;21.48;60.35;100236.66;5023144;28;4392;-65
2023/08/30 12:31:11;;;;;;;;;;;;;;;21.48;60.42;100231.63;5031639;28;4174;-65
2023/08/30 12:33:39;;;;;;;;;;;;;;;21.49;60.09;100229.53;5029731;28;4246;-66
2023/08/30 12:36:06;;;;;;;;;;;;;;;21.49;60.07;100220.88;5029917;28;4294;-65
2023/08/30 12:38:33;;;;;;;;;;;;;;;21.50;60.16;100222.34;5030727;28;4384;-66
2023/08/30 12:40:59;;;;;;;;;;;;;;;21.51;60.23;100218.06;5025403;28;4475;-66
2023/08/30 12:43:26;;;;;;;;;;;;;;;21.51;60.12;100212.31;5024080;28;4109;-66
2023/08/30 12:45:52;;;;;;;;;;;;;;;21.53;60.52;100220.97;5024397;28;4142;-65
2023/08/30 12:48:19;;;;;;;;;;;;;;;21.52;60.51;100208.72;5028565;28;4113;-65
2023/08/30 12:50:47;;;;;;;;;;;;;;;21.55;60.50;100212.41;5026193;28;3907;-66